Time;durP1;ratioP1;P1;durP2;ratioP2;P2;SDS_P1;SDS_P2;PMS_P1;PMS_P2;Temp;Humidity;BMP_temperature;BMP_pressure;BME280_temperature;BME280_humidity;BME280_pressure;Samples;Min_cycle;Max_cycle;Signal;HPM_P1;HPM_P2
2023/12/05 00:00:22;;;;;;;25.45;13.90;;;;;;;;;;5051123;28;20060;-64
2023/12/05 00:02:48;;;;;;;23.92;13.50;;;;;;;;;;5050655;28;20041;-62
2023/12/05 00:05:14;;;;;;;25.30;14.75;;;;;;;;;;5030178;28;20119;-62
2023/12/05 00:07:42;;;;;;;28.10;14.20;;;;;;;;;;5052385;28;20045;-62
2023/12/05 00:10:09;;;;;;;23.90;13.88;;;;;;;;;;5052559;28;20059;-62
2023/12/05 00:12:35;;;;;;;26.48;14.13;;;;;;;;;;5055401;28;20465;-62
2023/12/05 00:15:01;;;;;;;24.75;14.55;;;;;;;;;;5050769;28;20037;-61
2023/12/05 00:17:27;;;;;;;25.55;13.93;;;;;;;;;;5052336;28;20116;-61
2023/12/05 00:19:53;;;;;;;24.23;13.55;;;;;;;;;;5046016;28;20140;-62
2023/12/05 00:22:19;;;;;;;21.77;12.27;;;;;;;;;;5045223;28;20469;-61
2023/12/05 00:24:45;;;;;;;25.10;13.98;;;;;;;;;;5050756;28;20048;-61
2023/12/05 00:27:11;;;;;;;26.30;14.52;;;;;;;;;;5051413;28;20059;-62
2023/12/05 00:29:38;;;;;;;25.42;15.15;;;;;;;;;;5050752;28;20041;-61
2023/12/05 00:32:04;;;;;;;24.63;13.85;;;;;;;;;;5047080;28;20068;-62
2023/12/05 00:34:30;;;;;;;26.55;14.07;;;;;;;;;;5043271;28;20081;-62
2023/12/05 00:36:56;;;;;;;23.27;13.73;;;;;;;;;;5050217;28;20507;-61
2023/12/05 00:39:22;;;;;;;26.05;15.05;;;;;;;;;;5046984;28;20045;-61
2023/12/05 00:41:48;;;;;;;27.58;13.93;;;;;;;;;;5044892;28;20128;-61
2023/12/05 00:44:14;;;;;;;23.83;13.65;;;;;;;;;;5048214;28;20056;-61
2023/12/05 00:46:40;;;;;;;26.23;15.23;;;;;;;;;;5051699;28;20051;-62
2023/12/05 00:49:06;;;;;;;26.98;13.85;;;;;;;;;;5047627;28;20055;-62
2023/12/05 00:51:32;;;;;;;22.52;12.80;;;;;;;;;;5074300;28;20127;-63
2023/12/05 00:53:58;;;;;;;21.80;12.95;;;;;;;;;;5052726;28;20037;-62
2023/12/05 00:56:25;;;;;;;23.13;13.38;;;;;;;;;;5043858;28;20091;-61
2023/12/05 00:58:52;;;;;;;24.70;13.82;;;;;;;;;;5044626;28;20584;-62
2023/12/05 01:01:19;;;;;;;27.65;15.43;;;;;;;;;;5044742;28;20174;-61
2023/12/05 01:03:45;;;;;;;23.98;13.18;;;;;;;;;;5041414;28;20049;-62
2023/12/05 01:06:11;;;;;;;27.17;14.63;;;;;;;;;;5050067;28;20094;-62
2023/12/05 01:08:37;;;;;;;25.55;13.23;;;;;;;;;;5051451;28;20044;-62
2023/12/05 01:11:04;;;;;;;27.50;15.75;;;;;;;;;;5025071;28;20048;-62
2023/12/05 01:13:30;;;;;;;27.80;14.25;;;;;;;;;;5045146;28;20386;-61
2023/12/05 01:15:56;;;;;;;24.02;14.00;;;;;;;;;;5050454;28;20416;-61
2023/12/05 01:18:22;;;;;;;23.02;14.30;;;;;;;;;;5048099;28;20102;-61
2023/12/05 01:20:48;;;;;;;24.15;14.52;;;;;;;;;;5046160;28;20463;-61
2023/12/05 01:23:14;;;;;;;30.25;16.85;;;;;;;;;;5048766;28;20488;-62
2023/12/05 01:25:40;;;;;;;27.67;15.85;;;;;;;;;;5050129;28;20552;-61
2023/12/05 01:28:06;;;;;;;28.25;15.15;;;;;;;;;;5047974;28;20481;-61
2023/12/05 01:30:32;;;;;;;27.70;15.60;;;;;;;;;;5048196;28;20048;-62
2023/12/05 01:33:00;;;;;;;27.25;15.00;;;;;;;;;;5050737;28;20048;-61
2023/12/05 01:35:26;;;;;;;28.38;14.93;;;;;;;;;;5052700;28;20512;-61
2023/12/05 01:37:53;;;;;;;25.27;15.18;;;;;;;;;;5050209;28;20053;-61
2023/12/05 01:40:19;;;;;;;25.73;13.13;;;;;;;;;;5051730;28;20037;-61
2023/12/05 01:42:45;;;;;;;22.88;14.10;;;;;;;;;;5044386;28;20146;-62
2023/12/05 01:45:11;;;;;;;27.33;13.73;;;;;;;;;;5053168;28;20124;-61
2023/12/05 01:47:40;;;;;;;28.23;15.85;;;;;;;;;;5052632;28;20485;-62
2023/12/05 01:50:10;;;;;;;28.02;15.77;;;;;;;;;;5048749;28;20187;-61
2023/12/05 01:52:36;;;;;;;25.77;14.13;;;;;;;;;;5048809;28;20091;-61
2023/12/05 01:55:02;;;;;;;27.23;15.15;;;;;;;;;;5056177;28;20048;-61
2023/12/05 01:57:28;;;;;;;27.48;15.63;;;;;;;;;;5052368;28;20060;-61
2023/12/05 01:59:55;;;;;;;25.15;14.82;;;;;;;;;;5014787;28;1068496;-61
2023/12/05 02:02:21;;;;;;;25.55;14.77;;;;;;;;;;5052697;28;20052;-61
2023/12/05 02:04:47;;;;;;;27.50;15.13;;;;;;;;;;5046777;28;20450;-61
2023/12/05 02:07:13;;;;;;;25.63;15.27;;;;;;;;;;5049801;28;20132;-60
2023/12/05 02:09:39;;;;;;;29.10;15.32;;;;;;;;;;5054579;28;20124;-60
2023/12/05 02:12:06;;;;;;;22.95;13.00;;;;;;;;;;5050614;28;20050;-60
2023/12/05 02:14:32;;;;;;;24.45;13.88;;;;;;;;;;5052663;28;20037;-60
2023/12/05 02:17:00;;;;;;;27.60;15.38;;;;;;;;;;5058329;28;20049;-62
2023/12/05 02:19:59;;;;;;;27.33;15.85;;;;;;;;;;5053668;28;20131;-60
2023/12/05 02:22:37;;;;;;;24.75;14.43;;;;;;;;;;5014886;28;20049;-60
2023/12/05 02:25:25;;;;;;;23.95;14.95;;;;;;;;;;5049557;28;20051;-60
2023/12/05 02:27:51;;;;;;;23.23;12.93;;;;;;;;;;5051089;28;20040;-60
2023/12/05 02:30:18;;;;;;;26.48;16.33;;;;;;;;;;5054798;28;20048;-60
2023/12/05 02:32:44;;;;;;;28.33;16.00;;;;;;;;;;5045731;28;20147;-61
2023/12/05 02:35:11;;;;;;;24.33;14.70;;;;;;;;;;5050494;28;20098;-61
2023/12/05 02:37:47;;;;;;;25.98;14.88;;;;;;;;;;5049413;28;20052;-61
2023/12/05 02:40:13;;;;;;;28.75;16.15;;;;;;;;;;5043064;28;20538;-60
2023/12/05 02:42:40;;;;;;;26.85;15.95;;;;;;;;;;5044146;28;20045;-60
2023/12/05 02:45:12;;;;;;;26.38;15.88;;;;;;;;;;5053049;28;20041;-61
2023/12/05 02:47:38;;;;;;;28.58;16.75;;;;;;;;;;5052740;28;20044;-61
2023/12/05 02:50:05;;;;;;;28.52;17.40;;;;;;;;;;5045272;28;20072;-60
2023/12/05 02:52:31;;;;;;;24.45;15.65;;;;;;;;;;5049772;28;20048;-61
2023/12/05 02:54:57;;;;;;;30.02;18.73;;;;;;;;;;5054963;28;20041;-61
2023/12/05 02:57:23;;;;;;;29.33;17.48;;;;;;;;;;5047181;28;20040;-61
2023/12/05 02:59:49;;;;;;;28.15;16.85;;;;;;;;;;5051363;28;20049;-60
2023/12/05 03:02:15;;;;;;;26.90;16.83;;;;;;;;;;5051762;28;20493;-61
2023/12/05 03:04:41;;;;;;;30.75;18.30;;;;;;;;;;5051510;28;20037;-60
2023/12/05 03:07:07;;;;;;;29.40;17.92;;;;;;;;;;5053215;28;20505;-60
2023/12/05 03:09:33;;;;;;;29.95;18.00;;;;;;;;;;5049779;28;20059;-60
2023/12/05 03:11:59;;;;;;;33.13;18.45;;;;;;;;;;5049655;28;20485;-61
2023/12/05 03:14:25;;;;;;;29.30;17.17;;;;;;;;;;5037616;28;20052;-60
2023/12/05 03:16:51;;;;;;;29.95;17.00;;;;;;;;;;5051063;28;20099;-60
2023/12/05 03:19:17;;;;;;;29.92;18.25;;;;;;;;;;5054737;28;20476;-60
2023/12/05 03:21:43;;;;;;;30.05;18.55;;;;;;;;;;5046220;28;20179;-61
2023/12/05 03:24:09;;;;;;;29.67;18.63;;;;;;;;;;5047741;28;20135;-60
2023/12/05 03:26:35;;;;;;;28.98;16.45;;;;;;;;;;5047169;28;20041;-60
2023/12/05 03:29:01;;;;;;;27.85;16.30;;;;;;;;;;5049152;28;20055;-60
2023/12/05 03:31:27;;;;;;;28.52;16.52;;;;;;;;;;5051168;28;20047;-61
2023/12/05 03:33:53;;;;;;;30.50;17.95;;;;;;;;;;5049496;28;20045;-61
2023/12/05 03:36:19;;;;;;;31.23;18.52;;;;;;;;;;5047304;28;20048;-60
2023/12/05 03:38:45;;;;;;;32.47;19.50;;;;;;;;;;5048478;28;20041;-60
2023/12/05 03:41:11;;;;;;;30.98;18.00;;;;;;;;;;5034747;28;20053;-60
2023/12/05 03:43:37;;;;;;;30.08;19.20;;;;;;;;;;5048314;28;20041;-60
2023/12/05 03:46:03;;;;;;;32.13;17.95;;;;;;;;;;5052311;28;20049;-60
2023/12/05 03:48:29;;;;;;;30.42;19.02;;;;;;;;;;5049711;28;20099;-60
2023/12/05 03:50:55;;;;;;;34.42;20.48;;;;;;;;;;5047763;28;20072;-60
2023/12/05 03:53:22;;;;;;;31.15;19.75;;;;;;;;;;5047824;28;20062;-59
2023/12/05 03:55:48;;;;;;;36.25;20.25;;;;;;;;;;5052716;28;20045;-60
2023/12/05 03:58:14;;;;;;;35.38;20.35;;;;;;;;;;5052444;28;20433;-60
2023/12/05 04:00:40;;;;;;;34.55;20.08;;;;;;;;;;5051282;28;20548;-60
2023/12/05 04:03:06;;;;;;;33.95;20.00;;;;;;;;;;5048949;28;20552;-60
2023/12/05 04:05:32;;;;;;;35.22;19.75;;;;;;;;;;5055816;28;20122;-60
2023/12/05 04:07:58;;;;;;;35.30;20.77;;;;;;;;;;5050942;28;20182;-61
2023/12/05 04:10:24;;;;;;;32.15;18.77;;;;;;;;;;5051072;28;20045;-60
2023/12/05 04:12:50;;;;;;;33.50;19.38;;;;;;;;;;5049572;28;20045;-59
2023/12/05 04:15:16;;;;;;;33.25;19.70;;;;;;;;;;5049635;28;20049;-60
2023/12/05 04:17:42;;;;;;;35.72;22.08;;;;;;;;;;5050698;28;20060;-60
2023/12/05 04:20:10;;;;;;;37.10;21.25;;;;;;;;;;5048083;28;20045;-60
2023/12/05 04:22:36;;;;;;;35.95;19.25;;;;;;;;;;5049346;28;20077;-61
2023/12/05 04:25:04;;;;;;;34.70;20.17;;;;;;;;;;5049183;28;20481;-60
2023/12/05 04:27:30;;;;;;;36.30;18.40;;;;;;;;;;5050632;28;20063;-61
2023/12/05 04:29:56;;;;;;;34.08;19.90;;;;;;;;;;5049324;28;20127;-60
2023/12/05 04:32:22;;;;;;;36.60;19.90;;;;;;;;;;5053161;28;20456;-60
2023/12/05 04:34:48;;;;;;;35.17;19.95;;;;;;;;;;5054072;28;20040;-61
2023/12/05 04:37:14;;;;;;;34.80;19.50;;;;;;;;;;5052211;28;20044;-61
2023/12/05 04:39:40;;;;;;;35.88;20.80;;;;;;;;;;5051599;28;20044;-61
2023/12/05 04:42:06;;;;;;;26.08;15.50;;;;;;;;;;5051343;28;20041;-60
2023/12/05 04:44:33;;;;;;;39.70;22.45;;;;;;;;;;5047327;28;20458;-59
2023/12/05 04:46:59;;;;;;;36.47;20.88;;;;;;;;;;5051143;28;20045;-60
2023/12/05 04:49:26;;;;;;;37.63;21.63;;;;;;;;;;5047754;28;20505;-60
2023/12/05 04:51:52;;;;;;;35.65;19.92;;;;;;;;;;5049390;28;20053;-60
2023/12/05 04:54:18;;;;;;;38.05;22.23;;;;;;;;;;5046698;28;20045;-60
2023/12/05 04:56:44;;;;;;;41.30;23.33;;;;;;;;;;5053696;28;20127;-60
2023/12/05 04:59:10;;;;;;;39.20;21.10;;;;;;;;;;5051402;28;20049;-60
2023/12/05 05:01:36;;;;;;;39.15;22.20;;;;;;;;;;5061982;28;20056;-61
2023/12/05 05:04:02;;;;;;;40.80;22.60;;;;;;;;;;5054131;28;20045;-60
2023/12/05 05:06:28;;;;;;;46.58;24.50;;;;;;;;;;5050530;28;20544;-60
2023/12/05 05:08:54;;;;;;;39.33;21.80;;;;;;;;;;5050047;28;20052;-60
2023/12/05 05:11:20;;;;;;;40.58;23.00;;;;;;;;;;5050265;28;20049;-60
2023/12/05 05:13:46;;;;;;;44.97;25.40;;;;;;;;;;5051932;28;20047;-60
2023/12/05 05:16:12;;;;;;;42.35;22.67;;;;;;;;;;5047064;28;20041;-60
2023/12/05 05:18:38;;;;;;;42.30;23.50;;;;;;;;;;5045872;28;20049;-59
2023/12/05 05:21:05;;;;;;;47.00;25.42;;;;;;;;;;5049850;28;20685;-60
2023/12/05 05:23:31;;;;;;;46.08;24.55;;;;;;;;;;5043044;28;20486;-61
2023/12/05 05:25:57;;;;;;;46.72;25.02;;;;;;;;;;5049059;28;20409;-60
2023/12/05 05:28:23;;;;;;;46.55;25.02;;;;;;;;;;5048914;28;20052;-60
2023/12/05 05:30:54;;;;;;;46.08;24.70;;;;;;;;;;5053723;28;20472;-60
2023/12/05 05:33:20;;;;;;;45.20;25.08;;;;;;;;;;5052873;28;20402;-61
2023/12/05 05:35:46;;;;;;;45.08;23.35;;;;;;;;;;5048611;28;20037;-60
2023/12/05 05:38:12;;;;;;;47.63;25.95;;;;;;;;;;5046412;28;20048;-60
2023/12/05 05:40:39;;;;;;;54.38;27.48;;;;;;;;;;5050201;28;20500;-60
2023/12/05 05:43:05;;;;;;;46.97;24.35;;;;;;;;;;5049816;28;20124;-60
2023/12/05 05:45:31;;;;;;;50.50;25.30;;;;;;;;;;5048057;28;20045;-60
2023/12/05 05:47:57;;;;;;;44.45;24.27;;;;;;;;;;5051280;28;20509;-60
2023/12/05 05:50:23;;;;;;;45.83;24.20;;;;;;;;;;5056028;28;20044;-60
2023/12/05 05:52:49;;;;;;;48.30;26.27;;;;;;;;;;5054097;28;20115;-60
2023/12/05 05:55:15;;;;;;;49.42;24.48;;;;;;;;;;5046478;28;20477;-60
2023/12/05 05:57:41;;;;;;;49.90;25.05;;;;;;;;;;5050836;28;20485;-60
2023/12/05 06:00:08;;;;;;;49.88;24.58;;;;;;;;;;5049775;28;20409;-60
2023/12/05 06:02:36;;;;;;;45.90;24.25;;;;;;;;;;5050034;28;20053;-61
2023/12/05 06:05:02;;;;;;;50.50;25.88;;;;;;;;;;5050997;28;20076;-61
2023/12/05 06:07:29;;;;;;;49.95;26.00;;;;;;;;;;5050037;28;20052;-60
2023/12/05 06:09:57;;;;;;;48.65;25.52;;;;;;;;;;5043921;28;20055;-60
2023/12/05 06:12:26;;;;;;;49.05;25.20;;;;;;;;;;5053054;28;20527;-61
2023/12/05 06:14:52;;;;;;;48.38;25.38;;;;;;;;;;5050929;28;20061;-60
2023/12/05 06:17:18;;;;;;;46.30;23.25;;;;;;;;;;5056453;28;20497;-61
2023/12/05 06:19:45;;;;;;;65.38;34.17;;;;;;;;;;5035465;28;20522;-60
2023/12/05 06:22:12;;;;;;;52.25;29.25;;;;;;;;;;5051668;28;20059;-60
2023/12/05 06:24:38;;;;;;;53.05;29.67;;;;;;;;;;5054431;28;20053;-61
2023/12/05 06:27:04;;;;;;;45.72;24.55;;;;;;;;;;5055835;28;20468;-60
2023/12/05 06:29:30;;;;;;;49.65;27.92;;;;;;;;;;5044880;28;20053;-60
2023/12/05 06:31:56;;;;;;;52.58;29.40;;;;;;;;;;5048618;28;20068;-60
2023/12/05 06:34:24;;;;;;;49.03;27.90;;;;;;;;;;5053646;28;20122;-60
2023/12/05 06:36:50;;;;;;;44.03;22.73;;;;;;;;;;5046290;28;20048;-60
2023/12/05 06:39:16;;;;;;;46.28;24.75;;;;;;;;;;5056450;28;20124;-60
2023/12/05 06:41:42;;;;;;;50.22;27.95;;;;;;;;;;5054125;28;20041;-60
2023/12/05 06:44:08;;;;;;;44.95;21.95;;;;;;;;;;5053898;28;20470;-60
2023/12/05 06:46:34;;;;;;;45.35;23.42;;;;;;;;;;5049553;28;20069;-61
2023/12/05 06:49:00;;;;;;;45.40;25.30;;;;;;;;;;5055370;28;20049;-60
2023/12/05 06:51:26;;;;;;;44.78;22.75;;;;;;;;;;5048603;28;20481;-60
2023/12/05 06:53:52;;;;;;;44.95;22.92;;;;;;;;;;5052308;28;20100;-60
2023/12/05 06:56:22;;;;;;;42.72;22.02;;;;;;;;;;5047448;28;20405;-61
2023/12/05 06:58:48;;;;;;;45.15;22.73;;;;;;;;;;5047886;28;20045;-60
2023/12/05 07:01:14;;;;;;;43.60;23.65;;;;;;;;;;5052951;28;20135;-60
2023/12/05 07:03:42;;;;;;;40.78;22.48;;;;;;;;;;5053601;28;20069;-60
2023/12/05 07:06:09;;;;;;;51.92;24.90;;;;;;;;;;5051663;28;20043;-60
2023/12/05 07:08:35;;;;;;;68.30;32.03;;;;;;;;;;5047404;28;20464;-60
2023/12/05 07:11:01;;;;;;;50.40;25.52;;;;;;;;;;5044555;28;20072;-60
2023/12/05 07:13:27;;;;;;;47.20;24.38;;;;;;;;;;5052190;28;20037;-60
2023/12/05 07:15:53;;;;;;;64.60;34.78;;;;;;;;;;5052053;28;20135;-60
2023/12/05 07:18:19;;;;;;;77.22;38.20;;;;;;;;;;5052642;28;20037;-60
2023/12/05 07:20:45;;;;;;;49.35;24.50;;;;;;;;;;5052495;28;20095;-60
2023/12/05 07:23:12;;;;;;;49.75;27.60;;;;;;;;;;5055077;28;20071;-60
2023/12/05 07:25:38;;;;;;;44.20;24.05;;;;;;;;;;5056292;28;20250;-60
2023/12/05 07:28:04;;;;;;;47.13;23.98;;;;;;;;;;5050472;28;20049;-60
2023/12/05 07:30:31;;;;;;;46.90;23.50;;;;;;;;;;5049598;28;20064;-60
2023/12/05 07:32:57;;;;;;;46.88;24.13;;;;;;;;;;5045991;28;20144;-60
2023/12/05 07:35:23;;;;;;;50.70;24.77;;;;;;;;;;5051563;28;20084;-60
2023/12/05 07:37:49;;;;;;;40.40;19.98;;;;;;;;;;5050791;28;20045;-60
2023/12/05 07:40:15;;;;;;;49.55;24.38;;;;;;;;;;5053470;28;20124;-60
2023/12/05 07:42:41;;;;;;;43.40;21.80;;;;;;;;;;5052243;28;20130;-60
2023/12/05 07:45:08;;;;;;;32.50;16.92;;;;;;;;;;5052720;28;20048;-61
2023/12/05 07:47:34;;;;;;;41.08;21.27;;;;;;;;;;5052314;28;20493;-61
2023/12/05 07:50:00;;;;;;;46.45;22.23;;;;;;;;;;5052503;28;20041;-60
2023/12/05 07:52:27;;;;;;;46.42;23.35;;;;;;;;;;5049711;28;20468;-60
2023/12/05 07:54:53;;;;;;;42.30;22.20;;;;;;;;;;5047367;28;20048;-60
2023/12/05 07:57:22;;;;;;;78.55;36.47;;;;;;;;;;5054072;28;20075;-60
2023/12/05 07:59:51;;;;;;;50.15;25.65;;;;;;;;;;5050255;28;20061;-60
2023/12/05 08:02:17;;;;;;;40.38;21.75;;;;;;;;;;5050496;28;20501;-62
2023/12/05 08:04:43;;;;;;;47.55;23.17;;;;;;;;;;5050920;28;20052;-60
2023/12/05 08:07:09;;;;;;;45.00;23.45;;;;;;;;;;5051821;28;20083;-61
2023/12/05 08:09:35;;;;;;;44.75;21.65;;;;;;;;;;5049627;28;20128;-61
2023/12/05 08:12:02;;;;;;;46.53;23.70;;;;;;;;;;5047561;28;20488;-61
2023/12/05 08:14:28;;;;;;;47.63;24.10;;;;;;;;;;5055823;28;20091;-60
2023/12/05 08:16:54;;;;;;;42.53;22.83;;;;;;;;;;5047960;28;20136;-61
2023/12/05 08:19:20;;;;;;;40.60;22.52;;;;;;;;;;5053134;28;20091;-60
2023/12/05 08:21:46;;;;;;;45.15;22.38;;;;;;;;;;5051865;28;20068;-61
2023/12/05 08:24:12;;;;;;;47.08;22.92;;;;;;;;;;5050996;28;20037;-61
2023/12/05 08:26:38;;;;;;;45.78;22.52;;;;;;;;;;5051675;28;20048;-61
2023/12/05 08:29:04;;;;;;;48.30;24.83;;;;;;;;;;5048442;28;20135;-61
2023/12/05 08:31:30;;;;;;;42.85;21.92;;;;;;;;;;5053181;28;20119;-60
2023/12/05 08:33:58;;;;;;;43.30;22.27;;;;;;;;;;5052217;28;20052;-61
2023/12/05 08:36:24;;;;;;;45.22;24.02;;;;;;;;;;5049361;28;20106;-60
2023/12/05 08:38:50;;;;;;;45.83;23.58;;;;;;;;;;5050482;28;20128;-61
2023/12/05 08:41:19;;;;;;;45.50;23.25;;;;;;;;;;5047986;28;20041;-60
2023/12/05 08:43:46;;;;;;;46.05;23.52;;;;;;;;;;5049155;28;20497;-61
2023/12/05 08:46:12;;;;;;;47.78;22.38;;;;;;;;;;5047144;28;20091;-60
2023/12/05 08:48:41;;;;;;;42.65;22.52;;;;;;;;;;5051905;28;20052;-60
2023/12/05 08:51:07;;;;;;;93.70;42.40;;;;;;;;;;5047802;28;20048;-60
2023/12/05 08:53:33;;;;;;;51.63;25.75;;;;;;;;;;5049463;28;20080;-61
2023/12/05 08:56:00;;;;;;;107.68;53.83;;;;;;;;;;5050788;28;20040;-60
2023/12/05 08:58:26;;;;;;;49.17;24.77;;;;;;;;;;5049591;28;20409;-60
2023/12/05 09:00:52;;;;;;;47.22;24.60;;;;;;;;;;5048928;28;20057;-61
2023/12/05 09:03:18;;;;;;;46.75;23.40;;;;;;;;;;5048756;28;20052;-60
2023/12/05 09:05:45;;;;;;;43.03;22.73;;;;;;;;;;5048016;28;20052;-60
2023/12/05 09:08:11;;;;;;;49.17;22.92;;;;;;;;;;5050518;28;20802;-60
2023/12/05 09:10:37;;;;;;;44.30;20.90;;;;;;;;;;5048031;28;20131;-60
2023/12/05 09:13:03;;;;;;;54.55;25.95;;;;;;;;;;5050006;28;20040;-60
2023/12/05 09:15:29;;;;;;;45.15;19.73;;;;;;;;;;5048771;28;20040;-60
2023/12/05 09:17:55;;;;;;;53.63;26.10;;;;;;;;;;5050083;28;20056;-60
2023/12/05 09:20:21;;;;;;;48.85;23.90;;;;;;;;;;5048422;28;20041;-61
2023/12/05 09:22:47;;;;;;;47.17;24.55;;;;;;;;;;5046613;28;20056;-61
2023/12/05 09:25:13;;;;;;;48.83;24.38;;;;;;;;;;5049548;28;20052;-60
2023/12/05 09:27:39;;;;;;;54.70;27.00;;;;;;;;;;5049717;28;20053;-61
2023/12/05 09:30:05;;;;;;;71.07;34.55;;;;;;;;;;5052849;28;20146;-60
2023/12/05 09:32:31;;;;;;;55.15;26.65;;;;;;;;;;5045830;28;20094;-61
2023/12/05 09:34:57;;;;;;;54.15;27.92;;;;;;;;;;5052162;28;20186;-60
2023/12/05 09:37:23;;;;;;;53.60;26.25;;;;;;;;;;5049250;28;20175;-60
2023/12/05 09:39:49;;;;;;;53.22;27.48;;;;;;;;;;5044596;28;20379;-61
2023/12/05 09:42:16;;;;;;;58.63;26.13;;;;;;;;;;5042065;28;20424;-61
2023/12/05 09:44:47;;;;;;;53.03;24.40;;;;;;;;;;5049654;28;20053;-60
2023/12/05 09:47:16;;;;;;;51.00;25.15;;;;;;;;;;5044634;28;20124;-61
2023/12/05 09:49:42;;;;;;;47.53;23.13;;;;;;;;;;5049098;28;20045;-60
2023/12/05 09:52:09;;;;;;;56.80;26.85;;;;;;;;;;5046257;28;20045;-60
2023/12/05 09:54:35;;;;;;;50.42;27.20;;;;;;;;;;5053759;28;20056;-61
2023/12/05 09:57:02;;;;;;;47.60;24.58;;;;;;;;;;5053546;28;20071;-60
2023/12/05 09:59:28;;;;;;;53.70;25.05;;;;;;;;;;5053358;28;20040;-60
2023/12/05 10:01:59;;;;;;;55.90;28.42;;;;;;;;;;5047824;28;20088;-60
2023/12/05 10:04:27;;;;;;;57.72;27.48;;;;;;;;;;5052765;28;20122;-60
2023/12/05 10:06:54;;;;;;;56.60;26.50;;;;;;;;;;5052565;28;20049;-60
2023/12/05 10:09:23;;;;;;;54.58;26.27;;;;;;;;;;5052567;28;20040;-61
2023/12/05 10:11:49;;;;;;;49.85;28.05;;;;;;;;;;5048207;28;20063;-61
2023/12/05 10:14:15;;;;;;;52.35;26.42;;;;;;;;;;5054580;28;20062;-62
2023/12/05 10:16:42;;;;;;;61.22;30.60;;;;;;;;;;5049906;28;20048;-61
2023/12/05 10:19:08;;;;;;;66.63;31.98;;;;;;;;;;5049900;28;20056;-61
2023/12/05 10:21:34;;;;;;;51.97;26.42;;;;;;;;;;5047897;28;20516;-60
2023/12/05 10:24:01;;;;;;;56.35;27.33;;;;;;;;;;5049749;28;20045;-61
2023/12/05 10:26:28;;;;;;;51.17;25.08;;;;;;;;;;5048114;28;20440;-60
2023/12/05 10:28:56;;;;;;;58.03;29.05;;;;;;;;;;5049084;28;20077;-61
2023/12/05 10:31:22;;;;;;;49.30;25.52;;;;;;;;;;5048683;28;20044;-60
2023/12/05 10:33:49;;;;;;;52.80;25.02;;;;;;;;;;5048569;28;20049;-61
2023/12/05 10:36:16;;;;;;;56.10;29.27;;;;;;;;;;5050628;28;21052;-61
2023/12/05 10:38:43;;;;;;;51.97;25.90;;;;;;;;;;5049239;28;20047;-61
2023/12/05 10:41:09;;;;;;;61.40;29.95;;;;;;;;;;5046251;28;20515;-61
2023/12/05 10:43:36;;;;;;;47.78;23.20;;;;;;;;;;5062433;28;20131;-60
2023/12/05 10:46:03;;;;;;;51.50;26.45;;;;;;;;;;5049809;28;20052;-60
2023/12/05 10:48:29;;;;;;;68.20;32.25;;;;;;;;;;5053373;28;20041;-60
2023/12/05 10:50:56;;;;;;;54.53;28.20;;;;;;;;;;5053008;28;20041;-60
2023/12/05 10:53:22;;;;;;;53.35;25.75;;;;;;;;;;5049843;28;20041;-62
2023/12/05 10:55:48;;;;;;;56.97;27.85;;;;;;;;;;5052088;28;20120;-60
2023/12/05 10:58:15;;;;;;;48.42;25.98;;;;;;;;;;5052879;28;20408;-60
2023/12/05 11:00:42;;;;;;;50.65;24.90;;;;;;;;;;5052769;28;20076;-60
2023/12/05 11:03:08;;;;;;;56.00;28.08;;;;;;;;;;5049058;28;20091;-61
2023/12/05 11:05:34;;;;;;;110.85;42.42;;;;;;;;;;5051620;28;20041;-61
2023/12/05 11:08:01;;;;;;;139.00;46.35;;;;;;;;;;5052576;28;20489;-60
2023/12/05 11:10:28;;;;;;;170.93;55.20;;;;;;;;;;5051642;28;20059;-60
2023/12/05 11:12:54;;;;;;;99.65;38.92;;;;;;;;;;5052444;28;20119;-60
2023/12/05 11:15:29;;;;;;;68.85;33.05;;;;;;;;;;5049610;28;20127;-61
2023/12/05 11:18:04;;;;;;;91.97;40.00;;;;;;;;;;5048063;28;20060;-61
2023/12/05 11:20:30;;;;;;;98.40;45.80;;;;;;;;;;5050639;28;20079;-60
2023/12/05 11:23:08;;;;;;;97.85;44.40;;;;;;;;;;5050915;28;20069;-61
2023/12/05 11:25:41;;;;;;;67.18;32.63;;;;;;;;;;5049171;28;20037;-61
2023/12/05 11:28:25;;;;;;;65.38;33.42;;;;;;;;;;5051987;28;20175;-61
2023/12/05 11:30:51;;;;;;;74.15;40.33;;;;;;;;;;5051405;28;20043;-60
2023/12/05 11:33:32;;;;;;;53.55;27.75;;;;;;;;;;5052694;28;20033;-60
2023/12/05 11:36:13;;;;;;;61.05;32.25;;;;;;;;;;5047438;28;20056;-61
2023/12/05 11:38:39;;;;;;;54.17;24.20;;;;;;;;;;5044382;28;20045;-60
2023/12/05 11:41:14;;;;;;;57.28;28.50;;;;;;;;;;5047475;28;20033;-60
2023/12/05 11:43:44;;;;;;;50.83;25.38;;;;;;;;;;5052526;28;20150;-60
2023/12/05 11:46:10;;;;;;;54.63;29.75;;;;;;;;;;5048117;28;20037;-60
2023/12/05 11:48:36;;;;;;;52.05;25.17;;;;;;;;;;5050594;28;20037;-60
2023/12/05 11:51:02;;;;;;;56.40;26.63;;;;;;;;;;5051927;28;20049;-60
2023/12/05 11:53:29;;;;;;;51.97;26.65;;;;;;;;;;5051655;28;20041;-60
2023/12/05 11:55:55;;;;;;;53.78;25.67;;;;;;;;;;5047598;28;20041;-60
2023/12/05 11:58:34;;;;;;;50.83;25.75;;;;;;;;;;5045626;28;20041;-59
2023/12/05 12:01:02;;;;;;;56.65;28.67;;;;;;;;;;5052209;28;20057;-60
2023/12/05 12:03:33;;;;;;;43.28;22.27;;;;;;;;;;5043007;28;20046;-60
2023/12/05 12:06:02;;;;;;;51.05;25.80;;;;;;;;;;5050483;28;20048;-59
2023/12/05 12:08:29;;;;;;;47.45;23.65;;;;;;;;;;5051939;28;20100;-60
2023/12/05 12:10:56;;;;;;;48.75;22.67;;;;;;;;;;5051488;28;20044;-60
2023/12/05 12:13:22;;;;;;;50.15;25.10;;;;;;;;;;5049254;28;20801;-60
2023/12/05 12:15:48;;;;;;;51.72;24.67;;;;;;;;;;5051225;28;20569;-59
2023/12/05 12:18:14;;;;;;;53.20;25.30;;;;;;;;;;5054522;28;20051;-60
2023/12/05 12:20:40;;;;;;;54.97;25.70;;;;;;;;;;5049324;28;20047;-59
2023/12/05 12:23:07;;;;;;;49.53;22.50;;;;;;;;;;5053031;28;20498;-60
2023/12/05 12:25:33;;;;;;;54.60;25.30;;;;;;;;;;5045951;28;20049;-60
2023/12/05 12:28:00;;;;;;;55.15;23.80;;;;;;;;;;5052474;28;20531;-60
2023/12/05 12:30:34;;;;;;;53.08;22.90;;;;;;;;;;5052069;28;20037;-60
2023/12/05 12:33:09;;;;;;;47.80;25.70;;;;;;;;;;5052212;28;20052;-59
2023/12/05 12:35:35;;;;;;;66.28;30.85;;;;;;;;;;5049708;28;20463;-60
2023/12/05 12:38:01;;;;;;;78.05;34.95;;;;;;;;;;5047853;28;20052;-60
2023/12/05 12:40:27;;;;;;;192.48;64.68;;;;;;;;;;5051922;28;20082;-60
2023/12/05 12:42:54;;;;;;;308.92;109.72;;;;;;;;;;5050395;28;20045;-60
2023/12/05 12:45:21;;;;;;;65.10;33.08;;;;;;;;;;5059563;28;20055;-60
2023/12/05 12:47:47;;;;;;;62.63;37.53;;;;;;;;;;5049746;28;20052;-60
2023/12/05 12:50:14;;;;;;;54.25;29.58;;;;;;;;;;5051042;28;20063;-60
2023/12/05 12:52:41;;;;;;;77.72;56.67;;;;;;;;;;5048645;28;20490;-60
2023/12/05 12:55:08;;;;;;;55.60;30.17;;;;;;;;;;5048087;28;20194;-60
2023/12/05 12:57:35;;;;;;;47.53;24.17;;;;;;;;;;5047099;28;20059;-60
2023/12/05 13:00:02;;;;;;;54.15;28.45;;;;;;;;;;5049481;28;20405;-60
2023/12/05 13:02:30;;;;;;;50.67;25.17;;;;;;;;;;5045070;28;20075;-60
2023/12/05 13:04:56;;;;;;;52.50;25.52;;;;;;;;;;5044022;28;20055;-60
2023/12/05 13:07:25;;;;;;;49.88;25.00;;;;;;;;;;5050456;28;20060;-60
2023/12/05 13:09:51;;;;;;;45.47;22.48;;;;;;;;;;5054382;28;20048;-60
2023/12/05 13:12:18;;;;;;;54.22;26.23;;;;;;;;;;5044355;28;20044;-61
2023/12/05 13:14:51;;;;;;;47.20;22.33;;;;;;;;;;5049144;28;20183;-60
2023/12/05 13:17:20;;;;;;;52.20;23.60;;;;;;;;;;5047892;28;20040;-60
2023/12/05 13:19:46;;;;;;;57.67;30.38;;;;;;;;;;5049430;28;20044;-60
2023/12/05 13:22:12;;;;;;;52.85;26.55;;;;;;;;;;5050828;28;20171;-60
2023/12/05 13:24:39;;;;;;;49.03;24.17;;;;;;;;;;5048418;28;20056;-60
2023/12/05 13:27:05;;;;;;;47.30;22.20;;;;;;;;;;5055610;28;20408;-60
2023/12/05 13:29:31;;;;;;;54.85;24.45;;;;;;;;;;5055812;28;20083;-60
2023/12/05 13:31:58;;;;;;;54.15;24.92;;;;;;;;;;5053954;28;20048;-60
2023/12/05 13:34:24;;;;;;;54.28;26.08;;;;;;;;;;5051835;28;20485;-61
2023/12/05 13:36:50;;;;;;;58.03;25.23;;;;;;;;;;5053165;28;20118;-60
2023/12/05 13:39:17;;;;;;;53.50;25.88;;;;;;;;;;5052888;28;20493;-60
2023/12/05 13:41:43;;;;;;;47.83;23.67;;;;;;;;;;5055768;28;20044;-60
2023/12/05 13:44:09;;;;;;;58.60;24.83;;;;;;;;;;5050772;28;20036;-60
2023/12/05 13:46:35;;;;;;;54.03;25.80;;;;;;;;;;5053470;28;20515;-60
2023/12/05 13:49:04;;;;;;;52.40;24.95;;;;;;;;;;5048629;28;20454;-60
2023/12/05 13:51:30;;;;;;;57.42;24.60;;;;;;;;;;5049822;28;20130;-60
2023/12/05 13:53:57;;;;;;;53.38;24.02;;;;;;;;;;5048720;28;20053;-60
2023/12/05 13:56:23;;;;;;;54.35;24.88;;;;;;;;;;5054737;28;20497;-60
2023/12/05 13:58:49;;;;;;;55.28;25.05;;;;;;;;;;5052459;28;20501;-60
2023/12/05 14:01:15;;;;;;;60.90;25.83;;;;;;;;;;5053784;28;20059;-64
2023/12/05 14:03:41;;;;;;;56.30;25.83;;;;;;;;;;5050529;28;20048;-60
2023/12/05 14:06:08;;;;;;;54.55;23.75;;;;;;;;;;5051622;28;20077;-60
2023/12/05 14:08:34;;;;;;;56.55;25.75;;;;;;;;;;5053089;28;20067;-61
2023/12/05 14:11:00;;;;;;;56.92;27.00;;;;;;;;;;5052051;28;20075;-60
2023/12/05 14:13:26;;;;;;;56.63;26.58;;;;;;;;;;5052588;28;20033;-60